Time;durP1;ratioP1;P1;durP2;ratioP2;P2;SDS_P1;SDS_P2;PMS_P1;PMS_P2;Temp;Humidity;BMP_temperature;BMP_pressure;BME280_temperature;BME280_humidity;BME280_pressure;Samples;Min_cycle;Max_cycle;Signal;HPM_P1;HPM_P2
2021/12/02 00:01:21;;;;;;;0.10;0.10;;;3.50;99.90;;;;;;5071702;28;20516;-85
2021/12/02 00:03:48;;;;;;;0.20;0.20;;;3.40;99.90;;;;;;5055010;28;20109;-85
2021/12/02 00:06:18;;;;;;;0.20;0.20;;;3.40;99.90;;;;;;5055357;28;20437;-85
2021/12/02 00:08:45;;;;;;;0.22;0.22;;;3.40;99.90;;;;;;5071574;28;20075;-86
2021/12/02 00:11:14;;;;;;;0.40;0.40;;;3.40;99.90;;;;;;5071739;28;20477;-87
2021/12/02 00:16:19;;;;;;;0.20;0.20;;;3.30;99.90;;;;;;5071763;28;20103;-85
2021/12/02 00:21:17;;;;;;;9.73;2.28;;;3.20;99.90;;;;;;5072881;28;20048;-83
2021/12/02 00:23:59;;;;;;;0.20;0.20;;;3.20;99.90;;;;;;5054619;28;20056;-83
2021/12/02 00:26:27;;;;;;;0.20;0.20;;;3.20;99.90;;;;;;5071124;28;20086;-83
2021/12/02 00:28:59;;;;;;;1.10;0.82;;;3.10;99.90;;;;;;5072708;28;20052;-84
2021/12/02 00:31:31;;;;;;;0.20;0.20;;;3.10;99.90;;;;;;5071379;28;20103;-83
2021/12/02 00:33:58;;;;;;;;;;;3.00;99.90;;;;;;5054900;28;20170;-83
2021/12/02 00:36:26;;;;;;;0.35;0.35;;;2.90;99.90;;;;;;5071521;28;20275;-83
2021/12/02 00:38:53;;;;;;;0.20;0.20;;;2.90;99.90;;;;;;5072332;28;20041;-84
2021/12/02 00:41:21;;;;;;;0.30;0.30;;;2.90;99.90;;;;;;5054474;28;20452;-82
2021/12/02 00:43:49;;;;;;;12.07;0.95;;;2.90;99.90;;;;;;5054373;28;20078;-84
2021/12/02 00:46:18;;;;;;;0.20;0.20;;;2.90;99.90;;;;;;5071053;28;20052;-83
2021/12/02 00:48:45;;;;;;;0.20;0.20;;;2.90;99.90;;;;;;5070958;28;20037;-83
2021/12/02 00:51:12;;;;;;;0.20;0.20;;;2.90;99.90;;;;;;5071458;28;20052;-83
2021/12/02 00:53:45;;;;;;;0.20;0.20;;;2.90;99.90;;;;;;5054342;28;20114;-83
2021/12/02 00:56:16;;;;;;;0.20;0.20;;;2.80;99.90;;;;;;5074023;28;20202;-82
2021/12/02 00:58:46;;;;;;;0.13;0.13;;;2.80;99.90;;;;;;5074799;28;20107;-82
2021/12/02 01:01:13;;;;;;;0.57;0.40;;;2.80;99.90;;;;;;5057878;28;20059;-82
2021/12/02 01:03:39;;;;;;;2.05;1.95;;;2.80;99.90;;;;;;5074927;28;20131;-84
2021/12/02 01:06:06;;;;;;;0.20;0.20;;;2.80;99.90;;;;;;5075031;28;20093;-82
2021/12/02 01:08:34;;;;;;;0.20;0.20;;;2.70;99.90;;;;;;5074552;28;20044;-83
2021/12/02 01:11:00;;;;;;;0.17;0.17;;;2.70;99.90;;;;;;5074620;28;20548;-83
2021/12/02 01:13:26;;;;;;;0.20;0.20;;;2.60;99.90;;;;;;5057974;28;20037;-82
2021/12/02 01:15:52;;;;;;;0.35;0.35;;;2.60;99.90;;;;;;5075361;28;20047;-83
2021/12/02 01:18:18;;;;;;;0.70;0.70;;;2.60;99.90;;;;;;5074545;28;20103;-82
2021/12/02 01:20:46;;;;;;;0.20;0.20;;;2.60;99.90;;;;;;5057830;28;20501;-87
2021/12/02 01:23:12;;;;;;;0.20;0.20;;;2.50;99.90;;;;;;5058254;28;20052;-89
2021/12/02 01:25:40;;;;;;;0.20;0.20;;;2.50;99.90;;;;;;5091704;28;20078;-92
2021/12/02 01:28:07;;;;;;;0.43;0.43;;;2.60;99.90;;;;;;5075512;28;20048;-87
2021/12/02 01:30:33;;;;;;;0.15;0.15;;;2.50;99.90;;;;;;5058533;28;20127;-90
2021/12/02 01:33:02;;;;;;;0.20;0.20;;;2.60;99.90;;;;;;5058110;28;20546;-87
2021/12/02 01:35:29;;;;;;;0.10;0.10;;;2.60;99.90;;;;;;5057524;28;21575;-87
2021/12/02 01:37:55;;;;;;;0.95;0.95;;;2.60;99.90;;;;;;5074046;28;20037;-87
2021/12/02 01:40:21;;;;;;;0.50;0.50;;;2.50;99.90;;;;;;5074271;28;20044;-86
2021/12/02 01:42:52;;;;;;;0.20;0.20;;;2.50;99.90;;;;;;5074184;28;20056;-87
2021/12/02 01:45:23;;;;;;;0.30;0.30;;;2.50;99.90;;;;;;5074080;28;20146;-87
2021/12/02 01:47:52;;;;;;;0.20;0.20;;;2.50;99.90;;;;;;5057385;28;20050;-87
2021/12/02 01:50:21;;;;;;;11.05;1.65;;;2.50;99.90;;;;;;5075527;28;20155;-87
2021/12/02 01:52:59;;;;;;;0.20;0.20;;;2.50;99.90;;;;;;5074503;28;20055;-87
2021/12/02 01:55:27;;;;;;;0.20;0.20;;;2.50;99.90;;;;;;5057600;28;20037;-86
2021/12/02 01:57:59;;;;;;;0.20;0.20;;;2.50;99.90;;;;;;5057289;28;20061;-88
2021/12/02 02:00:41;;;;;;;7.60;0.90;;;2.50;99.90;;;;;;5074008;28;20052;-87
2021/12/02 02:03:09;;;;;;;0.20;0.20;;;2.50;99.90;;;;;;5057185;28;20064;-86
2021/12/02 02:05:36;;;;;;;0.43;0.43;;;2.60;99.90;;;;;;5073187;28;20109;-86
2021/12/02 02:08:16;;;;;;;0.20;0.20;;;2.50;99.90;;;;;;5073218;28;20094;-86
2021/12/02 02:10:43;;;;;;;0.20;0.20;;;2.60;99.90;;;;;;5073415;28;20044;-87
2021/12/02 02:13:10;;;;;;;0.20;0.20;;;2.60;99.90;;;;;;5056916;28;20128;-85
2021/12/02 02:15:39;;;;;;;0.28;0.28;;;2.70;99.90;;;;;;5056927;28;20052;-86
2021/12/02 02:20:47;;;;;;;0.80;0.45;;;2.90;99.90;;;;;;5073210;28;20136;-86
2021/12/02 02:23:13;;;;;;;0.13;0.13;;;3.00;99.90;;;;;;5056653;28;20087;-86
2021/12/02 02:25:42;;;;;;;1.67;1.13;;;3.00;99.90;;;;;;5074531;28;20033;-86
2021/12/02 02:28:08;;;;;;;0.20;0.20;;;3.00;99.90;;;;;;5073620;28;20459;-86
2021/12/02 02:30:34;;;;;;;0.10;0.10;;;3.00;99.90;;;;;;5056682;28;20040;-84
2021/12/02 02:33:00;;;;;;;0.20;0.20;;;3.00;99.90;;;;;;5073479;28;20101;-86
2021/12/02 02:35:26;;;;;;;0.20;0.20;;;2.90;99.90;;;;;;5073479;28;20040;-86
2021/12/02 02:37:52;;;;;;;0.95;0.95;;;2.90;99.90;;;;;;5072691;28;20512;-89
2021/12/02 02:44:00;;;;;;;0.20;0.20;;;2.90;99.90;;;;;;5073993;28;20456;-86
2021/12/02 02:46:32;;;;;;;0.20;0.20;;;2.80;99.90;;;;;;5072699;28;20052;-86
2021/12/02 02:48:59;;;;;;;2.75;0.52;;;2.80;99.90;;;;;;5072728;28;20562;-86
2021/12/02 02:51:26;;;;;;;0.20;0.20;;;2.80;99.90;;;;;;5055841;28;20098;-85
2021/12/02 02:53:55;;;;;;;0.20;0.20;;;2.80;99.90;;;;;;5055738;28;20559;-85
2021/12/02 02:56:24;;;;;;;0.20;0.20;;;2.80;99.90;;;;;;5072445;28;20055;-85
2021/12/02 02:59:19;;;;;;;0.20;0.20;;;2.70;99.90;;;;;;5055954;28;20079;-86
2021/12/02 03:02:11;;;;;;;0.20;0.20;;;2.80;99.90;;;;;;5055402;28;20140;-87
2021/12/02 03:07:26;;;;;;;0.30;0.30;;;2.70;99.90;;;;;;5072652;28;20139;-87
2021/12/02 03:13:45;;;;;;;0.20;0.20;;;2.70;99.90;;;;;;5073834;28;20467;-87
2021/12/02 03:18:55;;;;;;;0.20;0.20;;;2.70;99.90;;;;;;5071760;28;20048;-86
2021/12/02 03:21:22;;;;;;;0.20;0.20;;;2.60;99.90;;;;;;5072287;28;20094;-86
2021/12/02 03:23:57;;;;;;;0.20;0.20;;;2.60;99.90;;;;;;5055550;28;20542;-86
2021/12/02 03:26:23;;;;;;;0.22;0.22;;;2.50;99.90;;;;;;5072349;28;20408;-85
2021/12/02 03:28:51;;;;;;;0.30;0.30;;;2.40;99.90;;;;;;5072246;28;20036;-85
2021/12/02 03:31:17;;;;;;;0.40;0.40;;;2.40;99.90;;;;;;5072442;28;20086;-87
2021/12/02 03:33:43;;;;;;;12.93;0.50;;;2.40;99.90;;;;;;5055551;28;20044;-85
2021/12/02 03:36:10;;;;;;;0.20;0.20;;;2.40;99.90;;;;;;5072176;28;20041;-85
2021/12/02 03:38:36;;;;;;;0.20;0.20;;;2.40;99.90;;;;;;5072513;28;20049;-86
2021/12/02 03:41:02;;;;;;;0.10;0.10;;;2.40;99.90;;;;;;5055388;28;20048;-86
2021/12/02 03:43:38;;;;;;;0.20;0.20;;;2.30;99.90;;;;;;5071979;28;20084;-86
2021/12/02 03:46:04;;;;;;;0.17;0.17;;;2.30;99.90;;;;;;5073314;28;20048;-86
2021/12/02 03:48:30;;;;;;;0.20;0.20;;;2.20;99.90;;;;;;5073218;28;20389;-85
2021/12/02 03:50:57;;;;;;;0.20;0.20;;;2.20;99.90;;;;;;5071990;28;20080;-86
2021/12/02 03:53:23;;;;;;;0.10;0.10;;;2.30;99.90;;;;;;5055495;28;20040;-86
2021/12/02 03:55:48;;;;;;;0.20;0.20;;;2.30;99.90;;;;;;5055291;28;20040;-86
2021/12/02 03:58:14;;;;;;;0.20;0.20;;;2.30;99.90;;;;;;5071629;28;20053;-85
2021/12/02 04:00:40;;;;;;;0.20;0.20;;;2.30;99.90;;;;;;5071633;28;20131;-86
2021/12/02 04:03:06;;;;;;;0.10;0.10;;;2.40;99.90;;;;;;5055062;28;20052;-85
2021/12/02 04:05:32;;;;;;;0.45;0.45;;;2.40;99.90;;;;;;5071618;28;20047;-86
2021/12/02 04:07:58;;;;;;;0.20;0.20;;;2.30;99.90;;;;;;5071913;28;20174;-85
2021/12/02 04:10:25;;;;;;;0.20;0.20;;;2.30;99.90;;;;;;5071554;28;20080;-86
2021/12/02 04:15:24;;;;;;;0.30;0.30;;;2.30;99.90;;;;;;5071569;28;20122;-86
2021/12/02 04:17:51;;;;;;;0.20;0.20;;;2.30;99.90;;;;;;5071374;28;20059;-85
2021/12/02 04:20:22;;;;;;;0.20;0.20;;;2.20;99.90;;;;;;5071272;28;20374;-85
2021/12/02 04:22:53;;;;;;;0.20;0.20;;;2.20;99.90;;;;;;5071569;28;20555;-85
2021/12/02 04:25:19;;;;;;;0.35;0.35;;;2.20;99.90;;;;;;5071564;28;20076;-85
2021/12/02 04:27:47;;;;;;;0.30;0.30;;;2.10;99.90;;;;;;5054698;28;20041;-84
2021/12/02 04:30:15;;;;;;;0.22;0.22;;;2.10;99.90;;;;;;5075130;28;20084;-85
2021/12/02 04:32:41;;;;;;;0.20;0.20;;;2.00;99.90;;;;;;5075643;28;20127;-85
2021/12/02 04:35:08;;;;;;;0.47;0.47;;;2.00;99.90;;;;;;5075745;28;20123;-85
2021/12/02 04:37:34;;;;;;;0.20;0.20;;;2.00;99.90;;;;;;5058566;28;20084;-85
2021/12/02 04:40:00;;;;;;;0.20;0.20;;;2.00;99.90;;;;;;5058725;28;20075;-85
2021/12/02 04:42:26;;;;;;;0.28;0.28;;;2.00;99.90;;;;;;5075039;28;20044;-85
2021/12/02 04:44:51;;;;;;;0.20;0.20;;;2.00;99.90;;;;;;5074987;28;20082;-85
2021/12/02 04:47:17;;;;;;;0.20;0.20;;;2.10;99.90;;;;;;5075030;28;20036;-85
2021/12/02 04:49:44;;;;;;;0.20;0.20;;;2.10;99.90;;;;;;5074791;28;20052;-85
2021/12/02 04:52:10;;;;;;;0.30;0.30;;;2.10;99.90;;;;;;5074999;28;20044;-86
2021/12/02 04:54:36;;;;;;;0.40;0.40;;;2.00;99.90;;;;;;5058543;28;20063;-86
2021/12/02 04:57:03;;;;;;;1.52;1.48;;;2.00;99.90;;;;;;5074727;28;20048;-85
2021/12/02 04:59:28;;;;;;;0.20;0.20;;;2.00;99.90;;;;;;5058429;28;20070;-85
2021/12/02 05:01:54;;;;;;;0.20;0.20;;;1.90;99.90;;;;;;5074552;28;20060;-85
2021/12/02 05:04:20;;;;;;;0.30;0.30;;;1.90;99.90;;;;;;5074683;28;20036;-85
2021/12/02 05:06:46;;;;;;;0.30;0.30;;;1.90;99.90;;;;;;5074593;28;20048;-85
2021/12/02 05:09:11;;;;;;;0.20;0.20;;;1.80;99.90;;;;;;5074914;28;20084;-86
2021/12/02 05:11:38;;;;;;;1.85;0.52;;;1.70;99.90;;;;;;5075383;28;20567;-85
2021/12/02 05:14:05;;;;;;;0.20;0.20;;;1.70;99.90;;;;;;5074646;28;20098;-85
2021/12/02 05:16:31;;;;;;;0.20;0.20;;;1.60;99.90;;;;;;5058084;28;20101;-85
2021/12/02 05:18:56;;;;;;;0.50;0.50;;;1.60;99.90;;;;;;5074494;28;20447;-85
2021/12/02 05:21:22;;;;;;;0.30;0.30;;;1.50;99.90;;;;;;5074805;28;20075;-85
2021/12/02 05:23:53;;;;;;;5.38;1.42;;;1.60;99.90;;;;;;5057722;28;20397;-85
2021/12/02 05:26:21;;;;;;;0.20;0.20;;;1.60;99.90;;;;;;5075561;28;20041;-85
2021/12/02 05:28:46;;;;;;;0.20;0.20;;;1.60;99.90;;;;;;5074589;28;20044;-86
2021/12/02 05:31:12;;;;;;;0.20;0.20;;;1.60;99.90;;;;;;5074662;28;20540;-86
2021/12/02 05:33:38;;;;;;;0.40;0.40;;;1.60;99.90;;;;;;5074458;28;20049;-87
2021/12/02 05:36:04;;;;;;;0.40;0.40;;;1.60;99.90;;;;;;5074657;28;20114;-88
2021/12/02 05:38:30;;;;;;;0.20;0.20;;;1.60;99.90;;;;;;5075295;28;20043;-89
2021/12/02 05:40:55;;;;;;;3.75;1.00;;;1.60;99.90;;;;;;5057672;28;20103;-89
2021/12/02 05:43:21;;;;;;;0.20;0.20;;;1.70;99.90;;;;;;5058929;28;20093;-87
2021/12/02 05:45:47;;;;;;;0.20;0.20;;;1.60;99.90;;;;;;5058878;28;20477;-86
2021/12/02 05:48:13;;;;;;;0.20;0.20;;;1.70;99.90;;;;;;5076629;28;20041;-88
2021/12/02 05:50:38;;;;;;;0.20;0.20;;;1.80;99.90;;;;;;5058674;28;20461;-87
2021/12/02 05:53:04;;;;;;;0.22;0.22;;;1.80;99.90;;;;;;5075156;28;20071;-86
2021/12/02 05:55:30;;;;;;;0.20;0.20;;;1.90;99.90;;;;;;5074507;28;20401;-86
2021/12/02 05:57:56;;;;;;;0.20;0.20;;;1.80;99.90;;;;;;5075674;28;20041;-86
2021/12/02 06:00:21;;;;;;;0.20;0.20;;;1.80;99.90;;;;;;5057236;28;20479;-86
2021/12/02 06:02:47;;;;;;;0.20;0.20;;;1.80;99.90;;;;;;5075192;28;20048;-86
2021/12/02 06:05:22;;;;;;;0.22;0.22;;;1.80;99.90;;;;;;5056936;28;20558;-86
2021/12/02 06:07:53;;;;;;;0.20;0.20;;;1.80;99.90;;;;;;5073649;28;20493;-85
2021/12/02 06:10:20;;;;;;;0.20;0.20;;;1.80;99.90;;;;;;5073733;28;20041;-85
2021/12/02 06:12:45;;;;;;;2.72;1.48;;;1.80;99.90;;;;;;5074219;28;20055;-85
2021/12/02 06:15:12;;;;;;;2.00;1.10;;;1.80;99.90;;;;;;5073678;28;20127;-86
2021/12/02 06:17:38;;;;;;;0.20;0.20;;;1.80;99.90;;;;;;5057057;28;20135;-85
2021/12/02 06:20:06;;;;;;;0.20;0.20;;;1.80;99.90;;;;;;5073565;28;20045;-85
2021/12/02 06:22:32;;;;;;;0.20;0.20;;;1.80;99.90;;;;;;5056880;28;20098;-85
2021/12/02 06:27:44;;;;;;;0.20;0.20;;;1.90;99.90;;;;;;5074857;28;20101;-85
2021/12/02 06:30:11;;;;;;;0.20;0.20;;;1.90;99.90;;;;;;5073476;28;20044;-85
2021/12/02 06:32:37;;;;;;;0.20;0.20;;;1.90;99.90;;;;;;5073403;28;20055;-86
2021/12/02 06:35:03;;;;;;;0.20;0.20;;;1.80;99.90;;;;;;5073191;28;20049;-86
2021/12/02 06:37:28;;;;;;;0.20;0.20;;;1.80;99.90;;;;;;5072917;28;20125;-85
2021/12/02 06:39:54;;;;;;;0.20;0.20;;;1.80;99.90;;;;;;5056450;28;20532;-85
2021/12/02 06:42:20;;;;;;;0.20;0.20;;;1.70;99.90;;;;;;5073281;28;20040;-86
2021/12/02 06:44:45;;;;;;;0.20;0.20;;;1.60;99.90;;;;;;5073037;28;20105;-86
2021/12/02 06:47:11;;;;;;;2.15;1.95;;;1.50;99.90;;;;;;5073685;28;20063;-85
2021/12/02 06:49:40;;;;;;;0.20;0.20;;;1.40;99.90;;;;;;5073332;28;20075;-87
2021/12/02 06:52:11;;;;;;;0.20;0.20;;;1.40;99.90;;;;;;5073098;28;20056;-86
2021/12/02 06:54:37;;;;;;;0.10;0.10;;;1.30;99.90;;;;;;5072961;28;20524;-87
2021/12/02 06:57:03;;;;;;;0.22;0.22;;;1.30;99.90;;;;;;5072854;28;20048;-86
2021/12/02 06:59:29;;;;;;;0.20;0.20;;;1.30;99.90;;;;;;5072791;28;20048;-86
2021/12/02 07:01:55;;;;;;;0.20;0.20;;;1.20;99.90;;;;;;5056075;28;20071;-87
2021/12/02 07:04:21;;;;;;;0.20;0.20;;;1.20;99.90;;;;;;5056179;28;20048;-87
2021/12/02 07:06:47;;;;;;;0.30;0.30;;;1.20;99.90;;;;;;5056078;28;20052;-86
2021/12/02 07:09:14;;;;;;;8.40;2.40;;;1.20;99.90;;;;;;5073223;28;20057;-87
2021/12/02 07:11:42;;;;;;;0.20;0.20;;;1.20;99.90;;;;;;5073158;28;20090;-87
2021/12/02 07:14:09;;;;;;;0.35;0.35;;;1.10;99.90;;;;;;5056144;28;20083;-87
2021/12/02 07:16:36;;;;;;;0.25;0.25;;;1.20;99.90;;;;;;5056295;28;20166;-87
2021/12/02 07:19:06;;;;;;;0.20;0.20;;;1.10;99.90;;;;;;5056080;28;20048;-86
2021/12/02 07:21:36;;;;;;;0.20;0.20;;;1.10;99.90;;;;;;5056406;28;20049;-87
2021/12/02 07:27:55;;;;;;;0.20;0.20;;;1.20;99.90;;;;;;5073952;28;20044;-87
2021/12/02 07:30:21;;;;;;;0.30;0.30;;;1.20;99.90;;;;;;5055874;28;20041;-87
2021/12/02 07:32:51;;;;;;;0.20;0.20;;;1.10;99.90;;;;;;5072743;28;20089;-87
2021/12/02 07:35:17;;;;;;;0.20;0.20;;;1.10;99.90;;;;;;5073140;28;20048;-87
2021/12/02 07:37:56;;;;;;;0.20;0.20;;;1.10;99.90;;;;;;5072206;28;20382;-87
2021/12/02 07:40:23;;;;;;;0.85;0.85;;;1.10;99.90;;;;;;5072595;28;20072;-87
2021/12/02 07:42:53;;;;;;;0.20;0.20;;;1.10;99.90;;;;;;5072462;28;20048;-86
2021/12/02 07:45:24;;;;;;;0.20;0.20;;;1.10;99.90;;;;;;5055597;28;20108;-87
2021/12/02 07:47:50;;;;;;;0.20;0.20;;;1.00;99.90;;;;;;5072617;28;20060;-86
2021/12/02 07:50:17;;;;;;;0.22;0.22;;;1.10;99.90;;;;;;5072179;28;20047;-86
2021/12/02 07:52:51;;;;;;;0.20;0.20;;;1.00;99.90;;;;;;5072241;28;20048;-87
2021/12/02 07:55:18;;;;;;;0.30;0.30;;;1.00;99.90;;;;;;5055651;28;20040;-87
2021/12/02 07:57:45;;;;;;;0.45;0.45;;;1.00;99.90;;;;;;5071762;28;20097;-86
2021/12/02 08:00:14;;;;;;;2.50;2.35;;;0.90;99.90;;;;;;5071688;28;20053;-87
2021/12/02 08:02:45;;;;;;;0.30;0.30;;;1.00;99.90;;;;;;5072277;28;20056;-87
2021/12/02 08:05:12;;;;;;;0.47;0.47;;;1.00;99.90;;;;;;5071334;28;20048;-86
2021/12/02 08:07:39;;;;;;;0.20;0.20;;;1.00;99.90;;;;;;5072269;28;20075;-86
2021/12/02 08:10:07;;;;;;;2.20;1.33;;;1.10;99.90;;;;;;5055060;28;20409;-86
2021/12/02 08:12:34;;;;;;;0.30;0.30;;;1.20;99.90;;;;;;5071630;28;20044;-86
2021/12/02 08:15:03;;;;;;;0.20;0.20;;;1.10;99.90;;;;;;5071775;28;20500;-86
2021/12/02 08:17:29;;;;;;;0.20;0.20;;;1.20;99.90;;;;;;5054909;28;20051;-86
2021/12/02 08:19:54;;;;;;;0.20;0.20;;;1.20;99.90;;;;;;5054999;28;20041;-86
2021/12/02 08:22:20;;;;;;;0.25;0.25;;;1.10;99.90;;;;;;5071455;28;20128;-86
2021/12/02 08:24:46;;;;;;;0.20;0.20;;;1.10;99.90;;;;;;5071611;28;20045;-87
2021/12/02 08:27:11;;;;;;;0.20;0.20;;;1.20;99.90;;;;;;5071616;28;20053;-87
2021/12/02 08:29:37;;;;;;;0.85;0.85;;;1.10;99.90;;;;;;5071606;28;20080;-86
2021/12/02 08:32:03;;;;;;;0.20;0.20;;;1.20;99.90;;;;;;5054963;28;20048;-86
2021/12/02 08:34:29;;;;;;;0.20;0.20;;;1.30;99.90;;;;;;5054793;28;20058;-86
2021/12/02 08:36:56;;;;;;;0.30;0.30;;;1.40;99.90;;;;;;5071213;28;20044;-86
2021/12/02 08:39:24;;;;;;;0.20;0.20;;;1.40;99.90;;;;;;5071399;28;20438;-86
2021/12/02 08:41:53;;;;;;;0.20;0.20;;;1.40;99.90;;;;;;5054680;28;20049;-86
2021/12/02 08:44:19;;;;;;;0.20;0.20;;;1.60;99.90;;;;;;5054594;28;20051;-86
2021/12/02 08:46:44;;;;;;;0.20;0.20;;;1.60;99.90;;;;;;5071288;28;20044;-86
2021/12/02 08:49:10;;;;;;;0.50;0.50;;;1.70;99.90;;;;;;5071522;28;20041;-86
2021/12/02 08:51:36;;;;;;;0.30;0.30;;;1.70;99.90;;;;;;5071197;28;20377;-86
2021/12/02 08:54:02;;;;;;;0.20;0.20;;;1.80;99.90;;;;;;5071483;28;20174;-86
2021/12/02 08:56:28;;;;;;;0.40;0.40;;;1.80;99.90;;;;;;5071275;28;20048;-86
2021/12/02 08:58:54;;;;;;;0.32;0.32;;;1.80;99.90;;;;;;5071495;28;20101;-85
2021/12/02 09:01:20;;;;;;;0.40;0.40;;;1.80;99.90;;;;;;5071062;28;20400;-87
2021/12/02 09:03:46;;;;;;;0.38;0.30;;;1.80;99.90;;;;;;5054482;28;20145;-86
2021/12/02 09:06:12;;;;;;;0.45;0.45;;;1.80;99.90;;;;;;5071478;28;20037;-87
2021/12/02 09:08:42;;;;;;;0.63;0.63;;;1.80;99.90;;;;;;5071139;28;20439;-86
2021/12/02 09:11:07;;;;;;;0.20;0.20;;;1.80;99.90;;;;;;5071196;28;20133;-85
2021/12/02 09:13:33;;;;;;;0.20;0.20;;;1.80;99.90;;;;;;5070943;28;20072;-85
2021/12/02 09:15:59;;;;;;;0.45;0.40;;;1.70;99.90;;;;;;5072123;28;20044;-85
2021/12/02 09:18:26;;;;;;;0.38;0.38;;;1.80;99.90;;;;;;5074359;28;20047;-86
2021/12/02 09:20:52;;;;;;;0.70;0.70;;;1.70;99.90;;;;;;5074704;28;20036;-85
2021/12/02 09:23:17;;;;;;;0.30;0.30;;;1.70;99.90;;;;;;5074744;28;20044;-85
2021/12/02 09:25:44;;;;;;;0.30;0.22;;;1.80;99.90;;;;;;5057964;28;20048;-85
2021/12/02 09:28:10;;;;;;;0.25;0.25;;;1.70;99.90;;;;;;5058267;28;20279;-85
2021/12/02 09:30:36;;;;;;;0.65;0.65;;;1.80;99.90;;;;;;5057788;28;20135;-85
2021/12/02 09:33:02;;;;;;;0.32;0.30;;;1.80;99.90;;;;;;5074363;28;20037;-85
2021/12/02 09:35:28;;;;;;;0.20;0.20;;;1.90;99.90;;;;;;5057569;28;20578;-86
2021/12/02 09:37:54;;;;;;;3.40;1.00;;;2.00;99.90;;;;;;5057691;28;20056;-86
2021/12/02 09:40:20;;;;;;;0.35;0.35;;;2.10;99.90;;;;;;5057630;28;20051;-86
2021/12/02 09:42:46;;;;;;;0.30;0.30;;;2.20;99.90;;;;;;5057605;28;20059;-85
2021/12/02 09:45:13;;;;;;;1.75;1.35;;;2.20;99.90;;;;;;5074118;28;20080;-85
2021/12/02 09:47:42;;;;;;;0.40;0.40;;;2.30;99.90;;;;;;5074129;28;20071;-86
2021/12/02 09:50:14;;;;;;;0.20;0.20;;;2.40;99.90;;;;;;5075640;28;20048;-86
2021/12/02 09:52:41;;;;;;;0.40;0.40;;;2.40;99.90;;;;;;5074661;28;20079;-88
2021/12/02 09:57:57;;;;;;;0.20;0.20;;;2.60;99.90;;;;;;5052780;28;20056;-82
2021/12/02 10:00:40;;;;;;;0.30;0.30;;;2.70;99.90;;;;;;5035990;28;20053;-84
2021/12/02 10:03:18;;;;;;;0.20;0.20;;;2.80;99.90;;;;;;5036281;28;20114;-83
2021/12/02 10:05:56;;;;;;;0.47;0.47;;;2.90;99.90;;;;;;5036069;28;20124;-84
2021/12/02 10:08:29;;;;;;;0.30;0.30;;;2.90;99.90;;;;;;5036535;28;20056;-83
2021/12/02 10:11:05;;;;;;;0.50;0.50;;;3.00;99.90;;;;;;5019828;28;20122;-84
2021/12/02 10:16:28;;;;;;;0.38;0.38;;;3.10;99.90;;;;;;4977193;28;20058;-84
2021/12/02 10:19:10;;;;;;;0.32;0.32;;;3.20;99.90;;;;;;4977160;28;20418;-83
2021/12/02 10:22:03;;;;;;;0.10;0.10;;;3.20;99.90;;;;;;4977301;28;20115;-84
2021/12/02 10:24:29;;;;;;;0.30;0.30;;;3.30;99.90;;;;;;4977250;28;20054;-83
2021/12/02 10:26:57;;;;;;;1.30;1.30;;;3.30;99.90;;;;;;4976959;28;20054;-86
2021/12/02 10:29:30;;;;;;;0.55;0.55;;;3.30;99.90;;;;;;4960917;28;20062;-84
2021/12/02 10:32:19;;;;;;;0.20;0.20;;;3.40;99.90;;;;;;4976806;28;20137;-83
2021/12/02 10:34:50;;;;;;;0.30;0.30;;;3.40;99.90;;;;;;4984724;28;20411;-80
2021/12/02 10:37:18;;;;;;;0.50;0.50;;;3.40;99.90;;;;;;4995204;28;20058;-87
2021/12/02 10:40:07;;;;;;;0.20;0.20;;;3.30;99.90;;;;;;4996005;28;20061;-86
2021/12/02 10:42:34;;;;;;;0.68;0.68;;;3.20;99.90;;;;;;5012703;28;20050;-88
2021/12/02 10:45:02;;;;;;;1.38;1.38;;;3.20;99.90;;;;;;4996702;28;20483;-83
2021/12/02 10:47:28;;;;;;;0.20;0.20;;;3.10;99.90;;;;;;5012683;28;20054;-83
2021/12/02 10:50:07;;;;;;;0.20;0.20;;;3.00;99.90;;;;;;4996358;28;20058;-89
2021/12/02 10:52:34;;;;;;;1.40;0.60;;;2.90;99.90;;;;;;5003747;28;20057;-85
2021/12/02 10:55:07;;;;;;;0.73;0.40;;;2.80;99.90;;;;;;5073146;28;20503;-82
2021/12/02 10:57:39;;;;;;;0.40;0.40;;;2.70;99.90;;;;;;5072877;28;20086;-83
2021/12/02 11:00:14;;;;;;;0.30;0.30;;;2.60;99.90;;;;;;5074162;28;20037;-84
2021/12/02 11:02:49;;;;;;;0.13;0.13;;;2.50;99.90;;;;;;5074224;28;20091;-83
2021/12/02 11:05:20;;;;;;;1.02;1.02;;;2.50;99.90;;;;;;5072964;28;20101;-84
2021/12/02 11:07:53;;;;;;;0.13;0.13;;;2.40;99.90;;;;;;5074344;28;20546;-86
2021/12/02 11:10:19;;;;;;;0.20;0.20;;;2.30;99.90;;;;;;5074283;28;20128;-83
2021/12/02 11:12:50;;;;;;;0.20;0.20;;;2.30;99.90;;;;;;5072471;28;20128;-86
2021/12/02 11:15:18;;;;;;;0.10;0.10;;;2.30;99.90;;;;;;5073758;28;20055;-85
2021/12/02 11:17:50;;;;;;;0.73;0.73;;;2.40;99.90;;;;;;5073834;28;20071;-84
2021/12/02 11:20:21;;;;;;;0.22;0.22;;;2.50;99.90;;;;;;5072549;28;20051;-82
2021/12/02 11:22:52;;;;;;;0.25;0.25;;;2.50;99.90;;;;;;5073971;28;20044;-85
2021/12/02 11:25:17;;;;;;;0.10;0.10;;;2.50;99.90;;;;;;5073400;28;20576;-85
2021/12/02 11:27:49;;;;;;;0.20;0.20;;;2.50;99.90;;;;;;5055975;28;20143;-85
2021/12/02 11:30:23;;;;;;;0.10;0.10;;;2.60;99.90;;;;;;5073548;28;20045;-85
2021/12/02 11:33:09;;;;;;;0.20;0.20;;;2.60;99.90;;;;;;5073592;28;20048;-85
2021/12/02 11:35:44;;;;;;;0.20;0.20;;;2.60;99.90;;;;;;5073561;28;20040;-85
2021/12/02 11:38:19;;;;;;;0.20;0.20;;;2.60;99.90;;;;;;5071426;28;20098;-85
2021/12/02 11:40:48;;;;;;;1.27;1.27;;;2.60;99.90;;;;;;5072251;28;20439;-84
2021/12/02 11:43:18;;;;;;;0.20;0.20;;;2.60;99.90;;;;;;5073537;28;20041;-85
2021/12/02 11:45:49;;;;;;;1.10;1.10;;;2.60;99.90;;;;;;5072229;28;20397;-86
2021/12/02 11:48:24;;;;;;;0.20;0.20;;;2.60;99.90;;;;;;5073165;28;20037;-84
2021/12/02 11:50:53;;;;;;;0.20;0.20;;;2.60;99.90;;;;;;5072128;28;20497;-83
2021/12/02 11:53:22;;;;;;;0.20;0.20;;;2.50;99.90;;;;;;5073204;28;20055;-82
2021/12/02 11:55:59;;;;;;;0.20;0.20;;;2.50;99.90;;;;;;5072050;28;20448;-87
2021/12/02 11:58:26;;;;;;;0.35;0.35;;;2.40;99.90;;;;;;5073360;28;20040;-85
2021/12/02 12:00:54;;;;;;;0.30;0.30;;;2.40;99.90;;;;;;5071951;28;20083;-84
2021/12/02 12:03:42;;;;;;;0.28;0.28;;;2.40;99.90;;;;;;5071911;28;20481;-86
2021/12/02 12:06:22;;;;;;;0.40;0.40;;;2.40;99.90;;;;;;5071981;28;20139;-86
2021/12/02 12:08:52;;;;;;;0.35;0.35;;;2.40;99.90;;;;;;5054847;28;20534;-86
2021/12/02 12:11:26;;;;;;;0.22;0.22;;;2.40;99.90;;;;;;5071961;28;20048;-85
2021/12/02 12:13:58;;;;;;;0.20;0.20;;;2.40;99.90;;;;;;5071939;28;20052;-89
2021/12/02 12:16:23;;;;;;;;;;;2.40;99.90;;;;;;5074008;28;20098;-90
2021/12/02 12:18:49;;;;;;;0.30;0.30;;;2.60;99.90;;;;;;5073571;28;19925;-91
2021/12/02 12:21:15;;;;;;;0.75;0.75;;;2.60;99.90;;;;;;5055813;28;20517;-94
2021/12/02 12:24:01;;;;;;;0.63;0.63;;;2.70;99.90;;;;;;5072471;28;20078;-91
2021/12/02 12:26:29;;;;;;;0.30;0.30;;;2.70;99.90;;;;;;5073876;28;20054;-93
2021/12/02 12:29:06;;;;;;;0.68;0.68;;;2.80;99.90;;;;;;5073538;28;20052;-90
2021/12/02 12:31:46;;;;;;;0.30;0.30;;;2.80;99.90;;;;;;5073822;28;20068;-86
2021/12/02 12:34:47;;;;;;;1.50;0.95;;;2.80;99.90;;;;;;5072737;28;20044;-94
2021/12/02 12:37:22;;;;;;;1.00;0.95;;;2.80;99.90;;;;;;5072563;28;20143;-95
2021/12/02 12:40:19;;;;;;;0.40;0.40;;;2.80;99.90;;;;;;5072359;28;20048;-94
2021/12/02 12:42:57;;;;;;;0.55;0.55;;;2.90;99.90;;;;;;5073655;28;20047;-89
2021/12/02 12:45:40;;;;;;;0.32;0.32;;;2.80;99.90;;;;;;5072308;28;20102;-94
2021/12/02 12:48:11;;;;;;;0.43;0.43;;;2.80;99.90;;;;;;5072206;28;20509;-90
2021/12/02 12:50:41;;;;;;;0.20;0.20;;;2.80;99.90;;;;;;5074429;28;20044;-83
2021/12/02 12:53:07;;;;;;;0.85;0.85;;;2.70;99.90;;;;;;5076457;28;20392;-92
2021/12/02 12:55:42;;;;;;;1.52;0.30;;;2.60;99.90;;;;;;5077164;28;20264;-92
2021/12/02 12:58:15;;;;;;;0.20;0.20;;;2.50;99.90;;;;;;5075616;28;20048;-83
2021/12/02 13:00:44;;;;;;;0.20;0.20;;;2.40;99.90;;;;;;5076774;28;20140;-88
2021/12/02 13:03:22;;;;;;;0.20;0.20;;;2.30;99.90;;;;;;5076807;28;20052;-87
2021/12/02 13:05:54;;;;;;;0.40;0.40;;;2.30;99.90;;;;;;5075030;28;20041;-87
2021/12/02 13:08:26;;;;;;;0.20;0.20;;;2.40;99.90;;;;;;5077064;28;20040;-90
2021/12/02 13:11:00;;;;;;;0.25;0.25;;;2.30;99.90;;;;;;5076377;28;20053;-87
2021/12/02 13:13:32;;;;;;;0.65;0.65;;;2.30;99.90;;;;;;5109482;28;20497;-87
2021/12/02 13:16:35;;;;;;;0.20;0.20;;;2.30;99.90;;;;;;5074943;28;20123;-87
2021/12/02 13:19:00;;;;;;;;;;;2.30;99.90;;;;;;5077198;28;20084;-87
2021/12/02 13:21:29;;;;;;;0.32;0.32;;;2.30;99.90;;;;;;5077664;28;19920;-87
2021/12/02 13:23:56;;;;;;;0.20;0.20;;;2.20;99.90;;;;;;5059356;28;20044;-87
2021/12/02 13:26:28;;;;;;;0.20;0.20;;;2.20;99.90;;;;;;5076499;28;20040;-87
2021/12/02 13:29:07;;;;;;;0.30;0.30;;;2.10;99.90;;;;;;5076565;28;20097;-86
2021/12/02 13:31:34;;;;;;;8.10;2.05;;;2.20;99.90;;;;;;5075876;28;20423;-85
2021/12/02 13:34:03;;;;;;;0.20;0.20;;;2.20;99.90;;;;;;5075672;28;20091;-85
2021/12/02 13:36:37;;;;;;;0.20;0.20;;;2.10;99.90;;;;;;5074419;28;20064;-83
2021/12/02 13:39:15;;;;;;;0.20;0.20;;;2.10;99.90;;;;;;5074311;28;20078;-84
2021/12/02 13:41:42;;;;;;;0.43;0.43;;;1.90;99.90;;;;;;5075746;28;20044;-84
2021/12/02 13:44:13;;;;;;;8.43;1.13;;;1.80;99.90;;;;;;5074618;28;20033;-84